Time;durP1;ratioP1;P1;durP2;ratioP2;P2;SDS_P1;SDS_P2;PMS_P1;PMS_P2;Temp;Humidity;BMP_temperature;BMP_pressure;BME280_temperature;BME280_humidity;BME280_pressure;Samples;Min_cycle;Max_cycle;Signal;HPM_P1;HPM_P2
2023/07/04 00:01:48;;;;;;;18.70;5.18;;;;;;;22.49;50.06;100990.84;4973941;28;20026;-49
2023/07/04 00:04:20;;;;;;;12.20;4.72;;;;;;;22.76;51.90;100984.91;4973601;28;20366;-44
2023/07/04 00:06:50;;;;;;;12.07;4.82;;;;;;;22.84;50.82;100987.88;4975235;28;20031;-49
2023/07/04 00:09:17;;;;;;;12.75;4.70;;;;;;;22.97;49.75;100994.63;4976943;28;20081;-49
2023/07/04 00:11:43;;;;;;;12.48;5.10;;;;;;;22.62;50.72;100990.22;4977089;28;20038;-50
2023/07/04 00:14:10;;;;;;;15.68;5.25;;;;;;;22.41;50.56;100992.25;4976976;28;20090;-48
2023/07/04 00:16:36;;;;;;;15.20;5.10;;;;;;;22.30;50.85;100983.28;4976897;28;20027;-48
2023/07/04 00:19:06;;;;;;;15.90;4.93;;;;;;;22.48;50.51;100986.47;4977023;28;20035;-45
2023/07/04 00:21:33;;;;;;;16.92;4.90;;;;;;;22.13;51.78;100991.84;4977103;28;20031;-46
2023/07/04 00:23:59;;;;;;;14.18;4.88;;;;;;;22.19;51.68;100992.63;4976802;28;20027;-51
2023/07/04 00:26:26;;;;;;;19.23;6.45;;;;;;;22.10;53.60;100991.59;4976776;28;20030;-48
2023/07/04 00:28:53;;;;;;;24.77;6.60;;;;;;;21.92;51.99;100994.88;4976678;28;20023;-44
2023/07/04 00:31:23;;;;;;;15.02;5.60;;;;;;;21.35;53.25;100986.03;4976898;28;20115;-49
2023/07/04 00:33:50;;;;;;;15.05;5.95;;;;;;;21.05;55.37;100986.84;4976514;28;20026;-47
2023/07/04 00:36:18;;;;;;;17.60;5.50;;;;;;;20.84;55.18;100983.28;4976832;28;20026;-46
2023/07/04 00:38:48;;;;;;;13.88;4.55;;;;;;;20.63;55.73;100976.19;4976411;28;20027;-47
2023/07/04 00:41:23;;;;;;;15.23;5.55;;;;;;;20.77;56.00;100961.81;4976487;28;20031;-49
2023/07/04 00:44:07;;;;;;;15.23;5.13;;;;;;;20.58;54.71;100957.97;4976645;28;20085;-48
2023/07/04 00:46:43;;;;;;;15.35;5.82;;;;;;;20.43;56.02;100956.00;4976853;28;20427;-50
2023/07/04 00:49:22;;;;;;;19.15;5.57;;;;;;;20.46;57.46;100960.13;4976423;28;20085;-47
2023/07/04 00:52:10;;;;;;;16.42;6.20;;;;;;;20.40;56.95;100961.97;4976288;28;20039;-49
2023/07/04 00:54:45;;;;;;;19.65;5.53;;;;;;;20.64;56.76;100967.75;4976294;28;20023;-47
2023/07/04 00:57:14;;;;;;;15.73;5.50;;;;;;;20.70;55.65;100950.34;4976244;28;20023;-47
2023/07/04 00:59:43;;;;;;;18.52;5.50;;;;;;;20.56;55.87;100958.22;4976206;28;20090;-46
2023/07/04 01:02:16;;;;;;;13.55;4.30;;;;;;;20.59;55.26;100965.03;4976241;28;20023;-45
2023/07/04 01:04:44;;;;;;;15.27;4.88;;;;;;;20.67;56.03;100953.63;4976385;28;20109;-47
2023/07/04 01:07:28;;;;;;;17.65;5.85;;;;;;;20.81;56.53;100957.44;4975925;28;20034;-48
2023/07/04 01:10:06;;;;;;;18.13;5.57;;;;;;;20.93;57.39;100959.06;4975841;28;20061;-48
2023/07/04 01:12:34;;;;;;;17.30;6.28;;;;;;;21.00;55.39;100955.00;4975857;28;20538;-48
2023/07/04 01:15:01;;;;;;;16.40;5.95;;;;;;;20.87;56.17;100949.28;4975857;28;20023;-48
2023/07/04 01:17:27;;;;;;;15.57;5.63;;;;;;;20.53;56.53;100950.59;4975703;28;20110;-49
2023/07/04 01:19:54;;;;;;;18.42;5.28;;;;;;;20.78;57.60;100949.81;4975639;28;20074;-50
2023/07/04 01:22:41;;;;;;;17.80;5.50;;;;;;;20.79;56.46;100954.19;4975946;28;20050;-48
2023/07/04 01:25:35;;;;;;;14.07;5.93;;;;;;;20.78;56.24;100949.81;4975802;28;20031;-50
2023/07/04 01:28:03;;;;;;;12.05;4.78;;;;;;;20.93;55.96;100964.50;4975258;28;20450;-48
2023/07/04 01:30:32;;;;;;;14.27;5.55;;;;;;;21.08;55.85;100962.59;4975623;28;20395;-49
2023/07/04 01:33:01;;;;;;;13.32;4.80;;;;;;;21.16;55.45;100955.00;4975569;28;20488;-46
2023/07/04 01:35:29;;;;;;;10.95;4.78;;;;;;;20.77;56.07;100958.28;4975486;28;20475;-47
2023/07/04 01:37:56;;;;;;;13.35;4.47;;;;;;;20.56;56.11;100960.13;4975424;28;20110;-46
2023/07/04 01:40:24;;;;;;;12.88;4.88;;;;;;;20.14;57.06;100965.69;4958025;28;20477;-45
2023/07/04 01:42:50;;;;;;;19.02;5.65;;;;;;;19.86;58.48;100961.50;4975394;28;20105;-48
2023/07/04 01:45:16;;;;;;;12.88;5.10;;;;;;;20.24;58.27;100955.69;4975224;28;20086;-48
2023/07/04 01:47:43;;;;;;;17.25;5.43;;;;;;;20.23;57.60;100956.78;4975083;28;20046;-50
2023/07/04 01:50:11;;;;;;;12.38;5.43;;;;;;;20.33;58.25;100960.59;4975096;28;20031;-49
2023/07/04 01:52:39;;;;;;;11.98;4.63;;;;;;;19.84;58.16;100972.66;4975525;28;20054;-48
2023/07/04 01:55:06;;;;;;;9.80;4.70;;;;;;;20.13;57.30;100978.47;4975046;28;20026;-46
2023/07/04 01:57:33;;;;;;;15.30;4.40;;;;;;;20.21;57.49;100967.09;4975115;28;20049;-50
2023/07/04 01:59:59;;;;;;;14.38;4.90;;;;;;;20.42;56.44;100962.50;4974809;28;20031;-49
2023/07/04 02:02:25;;;;;;;12.35;3.78;;;;;;;20.67;55.17;100969.94;4974897;28;20025;-46
2023/07/04 02:04:52;;;;;;;10.85;3.95;;;;;;;20.94;54.60;100966.97;4974706;28;20440;-49
2023/07/04 02:07:18;;;;;;;9.57;3.58;;;;;;;21.27;54.56;100972.94;4974618;28;20035;-49
2023/07/04 02:09:44;;;;;;;8.15;3.38;;;;;;;21.70;52.87;100962.53;4975056;28;20030;-49
2023/07/04 02:12:11;;;;;;;10.25;4.10;;;;;;;21.02;54.00;100955.53;4974659;28;20023;-48
2023/07/04 02:14:37;;;;;;;7.13;2.95;;;;;;;21.74;52.24;100964.44;4974466;28;20027;-46
2023/07/04 02:17:03;;;;;;;10.93;3.70;;;;;;;22.07;50.60;100968.38;4974511;28;20480;-49
2023/07/04 02:19:29;;;;;;;8.07;3.50;;;;;;;22.31;49.78;100965.03;4974785;28;20026;-50
2023/07/04 02:21:56;;;;;;;8.38;3.53;;;;;;;22.36;49.39;100968.53;4974175;28;20468;-51
2023/07/04 02:24:22;;;;;;;14.07;3.97;;;;;;;22.64;48.72;100967.00;4974130;28;20027;-46
2023/07/04 02:26:49;;;;;;;7.57;3.47;;;;;;;22.54;49.59;100969.81;4974298;28;20427;-49
2023/07/04 02:29:18;;;;;;;9.27;3.00;;;;;;;22.36;49.61;100971.25;4974253;28;20037;-45
2023/07/04 02:31:44;;;;;;;8.88;3.33;;;;;;;21.99;50.87;100968.97;4974389;28;20054;-49
2023/07/04 02:34:11;;;;;;;8.85;3.90;;;;;;;22.08;50.81;100955.56;4974817;28;20030;-48
2023/07/04 02:36:37;;;;;;;6.80;3.03;;;;;;;22.51;49.98;100972.28;4974803;28;20546;-45
2023/07/04 02:39:03;;;;;;;8.25;3.75;;;;;;;22.93;48.78;100974.44;4974500;28;20031;-49
2023/07/04 02:41:29;;;;;;;10.07;3.60;;;;;;;22.83;48.49;100972.59;4974399;28;20035;-45
2023/07/04 02:43:57;;;;;;;7.05;3.00;;;;;;;22.80;48.20;100973.16;4974179;28;20172;-49
2023/07/04 02:46:23;;;;;;;8.85;3.72;;;;;;;22.33;49.42;100976.47;4974446;28;20506;-45
2023/07/04 02:48:49;;;;;;;5.60;3.22;;;;;;;22.43;49.25;100981.03;4974665;28;20074;-49
2023/07/04 02:51:16;;;;;;;8.32;3.20;;;;;;;22.48;48.70;100981.00;4974153;28;20031;-49
2023/07/04 02:53:42;;;;;;;10.95;3.58;;;;;;;21.81;50.02;100983.19;4974295;28;20030;-49
2023/07/04 02:56:10;;;;;;;6.60;3.20;;;;;;;22.12;49.90;100973.84;4956504;28;20360;-48
2023/07/04 02:58:37;;;;;;;10.80;3.67;;;;;;;21.08;51.62;100972.69;4973950;28;20038;-46
2023/07/04 03:01:04;;;;;;;6.53;3.42;;;;;;;21.34;52.05;100977.03;4974468;28;20069;-50
2023/07/04 03:03:31;;;;;;;12.13;4.15;;;;;;;21.22;52.24;100979.22;4974229;28;20054;-49
2023/07/04 03:05:59;;;;;;;8.13;3.78;;;;;;;20.00;54.72;100976.25;4974505;28;20101;-50
2023/07/04 03:08:26;;;;;;;10.85;4.05;;;;;;;19.75;56.48;100983.19;4974140;28;20033;-49
2023/07/04 03:10:52;;;;;;;13.65;4.00;;;;;;;19.26;58.41;100988.00;4974084;28;20030;-48
2023/07/04 03:13:18;;;;;;;27.63;15.25;;;;;;;19.25;59.14;100983.66;4973983;28;20118;-46
2023/07/04 03:15:44;;;;;;;13.48;6.45;;;;;;;18.87;59.65;100984.69;4974021;28;20050;-47
2023/07/04 03:18:11;;;;;;;10.50;4.30;;;;;;;18.73;60.95;100982.41;4974090;28;20427;-47
2023/07/04 03:20:37;;;;;;;8.23;4.18;;;;;;;18.47;61.84;100986.72;4974017;28;20030;-49
2023/07/04 03:23:04;;;;;;;12.75;4.38;;;;;;;18.08;63.26;100986.00;4974254;28;20472;-50
2023/07/04 03:25:30;;;;;;;9.70;4.03;;;;;;;17.63;65.04;100994.31;4974004;28;20031;-46
2023/07/04 03:27:56;;;;;;;7.63;4.30;;;;;;;17.64;65.22;100991.34;4974053;28;20027;-50
2023/07/04 03:30:22;;;;;;;14.55;5.40;;;;;;;17.57;65.54;100990.69;4974536;28;20370;-49
2023/07/04 03:32:48;;;;;;;14.68;4.45;;;;;;;17.62;65.25;100988.06;4973908;28;20113;-48
2023/07/04 03:35:15;;;;;;;11.63;4.75;;;;;;;17.49;65.71;100984.88;4974293;28;20026;-48
2023/07/04 03:37:41;;;;;;;8.30;3.88;;;;;;;17.44;65.67;100993.75;4974171;28;20542;-50
2023/07/04 03:40:09;;;;;;;12.95;4.68;;;;;;;17.30;66.70;100993.28;4973853;28;20085;-46
2023/07/04 03:42:38;;;;;;;9.55;4.43;;;;;;;17.04;66.86;100997.44;4976945;28;20027;-50
2023/07/04 03:45:05;;;;;;;11.07;4.88;;;;;;;16.96;67.92;100987.03;4977460;28;20138;-49
2023/07/04 03:47:32;;;;;;;11.25;4.97;;;;;;;16.63;69.38;100991.28;4977466;28;20443;-49
2023/07/04 03:49:58;;;;;;;12.18;5.28;;;;;;;16.74;69.54;100994.22;4977272;28;20121;-46
2023/07/04 03:52:25;;;;;;;12.60;5.63;;;;;;;16.42;70.90;101002.78;4977431;28;20118;-49
2023/07/04 03:54:52;;;;;;;16.65;5.70;;;;;;;16.15;71.64;101012.50;4977440;28;20050;-47
2023/07/04 03:57:19;;;;;;;13.93;6.00;;;;;;;16.17;71.94;101005.00;4977288;28;20027;-50
2023/07/04 03:59:45;;;;;;;13.60;6.20;;;;;;;16.21;71.77;101004.28;4977458;28;20023;-50
2023/07/04 04:02:11;;;;;;;18.52;6.05;;;;;;;15.88;73.22;101002.22;4977256;28;20022;-46
2023/07/04 04:04:39;;;;;;;16.02;5.80;;;;;;;15.93;73.56;101007.72;4977548;28;20027;-49
2023/07/04 04:07:10;;;;;;;14.95;6.03;;;;;;;15.69;74.36;101014.22;4977152;28;20027;-49
2023/07/04 04:09:37;;;;;;;12.73;5.93;;;;;;;15.76;74.14;101012.19;4977026;28;20018;-48
2023/07/04 04:12:06;;;;;;;20.45;6.72;;;;;;;15.79;74.05;101019.84;4977458;28;20081;-47
2023/07/04 04:14:33;;;;;;;12.73;5.53;;;;;;;15.72;74.35;101028.06;4977025;28;20472;-46
2023/07/04 04:16:59;;;;;;;11.75;5.60;;;;;;;15.88;73.83;101028.38;4976869;28;20030;-49
2023/07/04 04:19:26;;;;;;;14.50;5.40;;;;;;;15.78;74.09;101026.31;4976906;28;20077;-48
2023/07/04 04:21:53;;;;;;;17.05;6.60;;;;;;;15.54;75.29;101028.13;4976813;28;20027;-46
2023/07/04 04:24:21;;;;;;;13.45;6.07;;;;;;;15.39;75.88;101023.22;4976845;28;20058;-49
2023/07/04 04:26:47;;;;;;;13.50;6.43;;;;;;;15.39;76.03;101025.91;4976718;28;20027;-48
2023/07/04 04:29:19;;;;;;;18.70;6.60;;;;;;;15.49;75.65;101028.84;4977009;28;20027;-51
2023/07/04 04:31:46;;;;;;;21.42;11.05;;;;;;;15.50;76.07;101030.50;4977012;28;20495;-49
2023/07/04 04:34:12;;;;;;;15.35;7.90;;;;;;;15.44;75.92;101030.59;4976590;28;20089;-49
2023/07/04 04:36:39;;;;;;;14.40;7.28;;;;;;;15.49;75.99;101036.09;4976534;28;20118;-46
2023/07/04 04:39:05;;;;;;;16.35;7.05;;;;;;;15.40;76.10;101035.63;4976645;28;20080;-49
2023/07/04 04:41:32;;;;;;;16.55;7.05;;;;;;;15.27;76.67;101035.88;4976595;28;20486;-50
2023/07/04 04:44:02;;;;;;;14.10;6.72;;;;;;;15.29;76.51;101044.53;4976295;28;20057;-49
2023/07/04 04:46:28;;;;;;;17.60;7.13;;;;;;;15.29;76.23;101050.75;4976585;28;20023;-49
2023/07/04 04:48:54;;;;;;;13.52;7.15;;;;;;;15.31;76.13;101042.41;4976482;28;20031;-49
2023/07/04 04:51:22;;;;;;;22.50;10.82;;;;;;;15.30;76.36;101048.88;4958978;28;20063;-49
2023/07/04 04:53:48;;;;;;;20.15;9.52;;;;;;;15.35;76.48;101051.69;4975339;28;20264;-48
2023/07/04 04:56:15;;;;;;;16.80;7.90;;;;;;;15.09;77.43;101050.22;4976219;28;20050;-47
2023/07/04 04:58:44;;;;;;;15.93;6.65;;;;;;;15.20;76.93;101052.13;4976203;28;20019;-48
2023/07/04 05:01:22;;;;;;;19.70;7.45;;;;;;;15.14;77.18;101053.06;4976194;28;20042;-48
2023/07/04 05:03:54;;;;;;;14.35;6.30;;;;;;;15.14;77.08;101057.63;4976662;28;20031;-48
2023/07/04 05:06:25;;;;;;;17.13;6.60;;;;;;;15.12;77.13;101057.03;4976740;28;20499;-49
2023/07/04 05:08:52;;;;;;;10.98;6.60;;;;;;;14.89;78.07;101057.81;4976806;28;20022;-46
2023/07/04 05:11:19;;;;;;;15.75;6.40;;;;;;;15.05;77.71;101066.06;4976124;28;20041;-49
2023/07/04 05:13:46;;;;;;;15.70;7.10;;;;;;;15.00;77.95;101067.81;4975877;28;20111;-50
2023/07/04 05:16:14;;;;;;;18.60;7.72;;;;;;;14.94;78.22;101066.03;4976151;28;20065;-48
2023/07/04 05:18:42;;;;;;;22.55;8.32;;;;;;;15.07;77.99;101067.69;4976220;28;20027;-49
2023/07/04 05:21:11;;;;;;;14.95;6.78;;;;;;;15.01;77.84;101075.66;4976077;28;20037;-50
2023/07/04 05:23:40;;;;;;;15.90;6.75;;;;;;;15.04;77.71;101075.16;4975840;28;20019;-47
2023/07/04 05:26:10;;;;;;;15.18;7.13;;;;;;;15.06;77.63;101080.34;4975753;28;20102;-47
2023/07/04 05:28:37;;;;;;;19.77;6.07;;;;;;;15.11;76.89;101082.38;4975626;28;20027;-47
2023/07/04 05:31:06;;;;;;;15.82;6.55;;;;;;;15.13;77.11;101082.94;4975532;28;20080;-46
2023/07/04 05:33:35;;;;;;;13.25;6.13;;;;;;;15.07;76.86;101083.88;4975627;28;20034;-45
2023/07/04 05:36:03;;;;;;;18.58;6.38;;;;;;;15.01;77.64;101074.84;4975792;28;20360;-47
2023/07/04 05:38:29;;;;;;;15.77;6.60;;;;;;;14.89;77.81;101072.09;4958069;28;20498;-45
2023/07/04 05:40:55;;;;;;;18.33;7.05;;;;;;;14.84;78.12;101085.44;4975544;28;20038;-49
2023/07/04 05:43:22;;;;;;;15.90;7.28;;;;;;;14.89;78.18;101077.50;4975526;28;20034;-50
2023/07/04 05:45:52;;;;;;;25.38;8.35;;;;;;;14.89;78.08;101076.66;4975030;28;20047;-49
2023/07/04 05:48:18;;;;;;;15.50;7.45;;;;;;;14.81;78.12;101088.56;4975164;28;20062;-50
2023/07/04 05:50:56;;;;;;;17.38;6.72;;;;;;;14.78;78.64;101087.16;4957767;28;20030;-46
2023/07/04 05:53:25;;;;;;;21.00;7.65;;;;;;;14.81;78.45;101080.47;4975091;28;20085;-47
2023/07/04 05:55:52;;;;;;;20.15;7.65;;;;;;;14.78;78.69;101080.97;4975005;28;20035;-46
2023/07/04 05:58:19;;;;;;;17.90;7.13;;;;;;;14.62;78.75;101084.28;4975252;28;20038;-49
2023/07/04 06:00:47;;;;;;;23.27;9.55;;;;;;;14.76;78.61;101081.16;4976071;28;20035;-50
2023/07/04 06:03:17;;;;;;;25.33;10.95;;;;;;;14.59;78.97;101073.94;4975025;28;20042;-50
2023/07/04 06:05:44;;;;;;;25.67;10.50;;;;;;;14.53;79.42;101081.06;4974789;28;20070;-50
2023/07/04 06:08:10;;;;;;;25.20;11.50;;;;;;;14.52;79.78;101077.53;4974987;28;20027;-49
2023/07/04 06:10:37;;;;;;;18.02;11.82;;;;;;;14.55;79.78;101076.28;4974849;28;20149;-49
2023/07/04 06:13:03;;;;;;;24.48;10.68;;;;;;;14.50;79.85;101082.34;4974927;28;20037;-50
2023/07/04 06:15:30;;;;;;;22.38;9.15;;;;;;;14.26;80.54;101084.03;4974842;28;20023;-49
2023/07/04 06:17:56;;;;;;;14.68;7.43;;;;;;;14.41;80.21;101080.13;4974777;28;20494;-49
2023/07/04 06:20:23;;;;;;;20.92;8.32;;;;;;;14.31;80.96;101083.34;4974650;28;20041;-49
2023/07/04 06:22:49;;;;;;;20.80;9.15;;;;;;;14.36;80.77;101088.88;4974904;28;20035;-48
2023/07/04 06:25:16;;;;;;;18.10;8.00;;;;;;;14.22;81.54;101076.63;4974885;28;20035;-47
2023/07/04 06:27:44;;;;;;;14.40;7.40;;;;;;;14.23;81.24;101079.09;4974550;28;20075;-49
2023/07/04 06:30:11;;;;;;;16.30;6.28;;;;;;;14.30;81.31;101081.72;4974735;28;20447;-49
2023/07/04 06:32:37;;;;;;;18.33;6.68;;;;;;;14.24;81.82;101085.31;4974848;28;20031;-50
2023/07/04 06:35:04;;;;;;;17.58;6.35;;;;;;;14.23;82.23;101079.09;4974359;28;20066;-46
2023/07/04 06:37:30;;;;;;;13.90;6.38;;;;;;;14.33;81.53;101081.28;4974751;28;20033;-48
2023/07/04 06:39:56;;;;;;;18.30;7.72;;;;;;;14.36;81.65;101082.69;4974356;28;20029;-47
2023/07/04 06:42:22;;;;;;;19.77;6.93;;;;;;;14.21;82.22;101085.75;4974387;28;20479;-48
2023/07/04 06:44:48;;;;;;;18.50;7.65;;;;;;;14.25;82.07;101082.38;4974305;28;20051;-49
2023/07/04 06:47:15;;;;;;;18.48;7.80;;;;;;;14.11;82.60;101082.78;4974560;28;20035;-46
2023/07/04 06:49:41;;;;;;;20.10;6.78;;;;;;;14.05;82.89;101087.19;4974312;28;20032;-48
2023/07/04 06:52:07;;;;;;;21.70;7.80;;;;;;;13.99;83.21;101088.03;4974313;28;20098;-46
2023/07/04 06:54:33;;;;;;;16.77;6.80;;;;;;;13.95;83.35;101079.59;4974516;28;20034;-48
2023/07/04 06:57:04;;;;;;;16.02;7.10;;;;;;;14.03;83.12;101097.31;4974318;28;20443;-49
2023/07/04 06:59:30;;;;;;;26.27;7.95;;;;;;;14.08;82.87;101097.47;4974427;28;20392;-46
2023/07/04 07:01:56;;;;;;;27.23;8.52;;;;;;;14.11;82.56;101096.22;4974179;28;20066;-49
2023/07/04 07:04:23;;;;;;;13.57;6.05;;;;;;;14.16;82.52;101102.59;4974176;28;20031;-46
2023/07/04 07:06:49;;;;;;;16.25;7.30;;;;;;;14.11;82.80;101101.63;4974490;28;20054;-45
2023/07/04 07:09:15;;;;;;;16.30;6.82;;;;;;;13.97;83.56;101103.59;4974152;28;20516;-49
2023/07/04 07:11:41;;;;;;;20.38;7.97;;;;;;;14.02;83.31;101103.75;4973969;28;20035;-49
2023/07/04 07:14:07;;;;;;;21.55;7.07;;;;;;;14.06;83.01;101099.59;4974053;28;20067;-49
2023/07/04 07:16:34;;;;;;;22.30;7.32;;;;;;;13.99;83.26;101109.56;4975583;28;20483;-48
2023/07/04 07:19:00;;;;;;;18.98;7.15;;;;;;;13.92;83.68;101117.72;4978093;28;20026;-46
2023/07/04 07:21:27;;;;;;;19.15;7.20;;;;;;;13.96;83.21;101108.16;4978179;28;20062;-46
2023/07/04 07:23:54;;;;;;;19.98;6.88;;;;;;;13.84;83.80;101106.41;4977915;28;20505;-49
2023/07/04 07:26:22;;;;;;;16.02;6.85;;;;;;;13.88;83.91;101112.97;4978152;28;20062;-49
2023/07/04 07:28:48;;;;;;;21.55;7.78;;;;;;;13.91;82.96;101108.00;4977788;28;20041;-47
2023/07/04 07:31:21;;;;;;;22.08;7.25;;;;;;;13.88;83.25;101116.53;4977653;28;20039;-50
2023/07/04 07:33:49;;;;;;;15.60;6.13;;;;;;;13.86;83.33;101115.91;4977828;28;20027;-46
2023/07/04 07:36:23;;;;;;;12.93;6.18;;;;;;;13.85;83.65;101116.13;4977833;28;20030;-49
2023/07/04 07:38:51;;;;;;;18.17;6.97;;;;;;;13.94;83.22;101110.25;4978429;28;20035;-50
2023/07/04 07:41:18;;;;;;;16.88;6.95;;;;;;;13.87;83.08;101109.47;4977795;28;20023;-48
2023/07/04 07:43:45;;;;;;;14.30;6.60;;;;;;;13.79;83.75;101115.16;4977542;28;20101;-49
2023/07/04 07:46:14;;;;;;;18.60;7.45;;;;;;;13.90;83.79;101114.44;4977327;28;20450;-48
2023/07/04 07:48:41;;;;;;;21.63;7.55;;;;;;;13.87;83.95;101114.03;4977418;28;20486;-47
2023/07/04 07:51:10;;;;;;;14.23;6.88;;;;;;;13.97;83.50;101114.34;4977356;28;20042;-46
2023/07/04 07:53:37;;;;;;;17.27;6.60;;;;;;;13.89;83.65;101120.84;4977515;28;20027;-49
2023/07/04 07:56:05;;;;;;;17.60;6.50;;;;;;;13.88;83.75;101112.97;4977486;28;20026;-48
2023/07/04 07:58:32;;;;;;;18.10;7.18;;;;;;;13.92;83.31;101109.63;4977353;28;20026;-49
2023/07/04 08:00:59;;;;;;;17.27;6.72;;;;;;;14.07;82.61;101111.16;4977255;28;20025;-50
2023/07/04 08:03:26;;;;;;;17.23;6.55;;;;;;;13.89;83.53;101111.97;4977273;28;20502;-50
2023/07/04 08:05:52;;;;;;;18.15;6.75;;;;;;;14.03;82.83;101109.97;4977105;28;20033;-48
2023/07/04 08:08:19;;;;;;;14.43;6.75;;;;;;;13.87;83.39;101114.84;4977074;28;20019;-49
2023/07/04 08:10:45;;;;;;;15.32;6.78;;;;;;;14.06;82.21;101115.72;4976898;28;20082;-50
2023/07/04 08:13:12;;;;;;;15.45;6.35;;;;;;;14.02;82.25;101122.59;4977035;28;20106;-47
2023/07/04 08:15:38;;;;;;;15.20;5.85;;;;;;;14.08;82.28;101118.19;4976940;28;20019;-47
2023/07/04 08:18:09;;;;;;;15.60;6.13;;;;;;;13.97;82.35;101115.19;4976850;28;20502;-46
2023/07/04 08:20:36;;;;;;;15.57;6.20;;;;;;;14.08;82.70;101112.81;4976834;28;20037;-49
2023/07/04 08:23:03;;;;;;;15.18;7.00;;;;;;;13.98;82.76;101110.63;4976906;28;20030;-46
2023/07/04 08:25:30;;;;;;;13.32;5.65;;;;;;;14.03;82.96;101115.34;4976709;28;20404;-48
2023/07/04 08:27:56;;;;;;;12.45;6.43;;;;;;;14.14;82.41;101117.31;4976843;28;20026;-49
2023/07/04 08:30:22;;;;;;;21.40;7.32;;;;;;;14.10;81.86;101119.63;4959263;28;20089;-48
2023/07/04 08:32:48;;;;;;;16.80;6.03;;;;;;;13.99;82.43;101118.50;4976657;28;20025;-46
2023/07/04 08:35:16;;;;;;;13.55;6.75;;;;;;;13.93;82.91;101108.59;4977263;28;20027;-50
2023/07/04 08:37:42;;;;;;;18.92;7.47;;;;;;;14.07;82.16;101113.84;4976336;28;20042;-48
2023/07/04 08:40:10;;;;;;;19.80;6.80;;;;;;;14.03;82.54;101113.47;4976434;28;20019;-48
2023/07/04 08:42:39;;;;;;;12.95;6.30;;;;;;;14.02;82.27;101111.84;4976388;28;20022;-47
2023/07/04 08:45:12;;;;;;;13.90;5.90;;;;;;;14.02;82.12;101109.13;4976368;28;20043;-49
2023/07/04 08:47:40;;;;;;;15.63;5.68;;;;;;;14.06;81.86;101118.44;4977100;28;20084;-48
2023/07/04 08:50:23;;;;;;;16.60;6.82;;;;;;;13.90;82.95;101111.75;4976217;28;20033;-47
2023/07/04 08:53:02;;;;;;;18.35;6.78;;;;;;;13.93;83.04;101105.06;4976268;28;20038;-50
2023/07/04 08:55:35;;;;;;;12.25;6.25;;;;;;;13.96;82.76;101110.84;4976581;28;20046;-49
2023/07/04 08:58:03;;;;;;;14.13;7.13;;;;;;;14.02;81.86;101102.94;4976153;28;20022;-50
2023/07/04 09:00:42;;;;;;;14.05;5.60;;;;;;;13.98;82.37;101108.75;4975990;28;20039;-48
2023/07/04 09:03:44;;;;;;;16.90;7.43;;;;;;;13.95;82.06;101108.38;4976202;28;20035;-49
2023/07/04 09:06:17;;;;;;;10.43;5.90;;;;;;;13.96;82.15;101101.97;4976230;28;20102;-50
2023/07/04 09:09:23;;;;;;;13.73;5.55;;;;;;;13.98;81.90;101102.53;4975956;28;20522;-46
2023/07/04 09:11:50;;;;;;;14.77;6.22;;;;;;;13.99;81.61;101094.28;4975825;28;20122;-50
2023/07/04 09:14:33;;;;;;;15.98;6.07;;;;;;;14.02;81.62;101092.16;4958603;28;20035;-46
2023/07/04 09:17:04;;;;;;;14.77;5.97;;;;;;;13.93;81.88;101095.13;4975721;28;20027;-48
2023/07/04 09:19:35;;;;;;;16.42;6.03;;;;;;;13.91;81.90;101096.41;4975964;28;20109;-50
2023/07/04 09:22:06;;;;;;;13.25;5.75;;;;;;;13.85;82.01;101100.00;4975968;28;20490;-46
2023/07/04 09:24:32;;;;;;;16.00;6.00;;;;;;;13.82;83.08;101097.72;4975610;28;20022;-49
2023/07/04 09:27:00;;;;;;;16.63;7.43;;;;;;;13.78;83.30;101097.38;4975924;28;20102;-47
2023/07/04 09:29:27;;;;;;;15.55;6.13;;;;;;;13.80;83.23;101099.84;4975861;28;20035;-48
2023/07/04 09:32:00;;;;;;;20.55;6.45;;;;;;;13.78;83.05;101094.69;4975796;28;20034;-46
2023/07/04 09:34:43;;;;;;;17.45;6.65;;;;;;;13.84;82.96;101088.41;4975407;28;20041;-47
2023/07/04 09:37:13;;;;;;;18.60;6.68;;;;;;;13.90;82.58;101092.09;4975327;28;20062;-49
2023/07/04 09:40:00;;;;;;;13.32;5.70;;;;;;;13.91;82.64;101091.84;4974809;28;20035;-48
2023/07/04 09:42:47;;;;;;;15.25;6.32;;;;;;;14.02;82.50;101087.59;4975724;28;20082;-47
2023/07/04 09:45:19;;;;;;;18.13;6.53;;;;;;;14.08;82.70;101088.59;4974930;28;20047;-45
2023/07/04 09:47:45;;;;;;;14.57;5.55;;;;;;;14.00;82.76;101090.53;4975292;28;20042;-46
2023/07/04 09:50:16;;;;;;;11.52;5.35;;;;;;;14.10;81.87;101090.03;4975107;28;20049;-50
2023/07/04 09:52:43;;;;;;;14.60;6.22;;;;;;;14.17;81.59;101089.94;4975640;28;20078;-48
2023/07/04 09:55:13;;;;;;;14.02;6.28;;;;;;;14.18;81.79;101086.19;4975059;28;20042;-48
2023/07/04 09:57:40;;;;;;;17.75;6.25;;;;;;;14.24;81.77;101093.38;4975412;28;20383;-47
2023/07/04 10:00:18;;;;;;;14.43;5.53;;;;;;;14.25;81.81;101089.63;4974932;28;20423;-47
2023/07/04 10:02:47;;;;;;;14.50;5.97;;;;;;;14.21;81.51;101100.06;4974929;28;20090;-50
2023/07/04 10:05:27;;;;;;;13.40;5.55;;;;;;;14.23;81.76;101092.56;4974941;28;20047;-46
2023/07/04 10:08:04;;;;;;;15.60;6.07;;;;;;;14.21;81.03;101091.13;4975380;28;20471;-48
2023/07/04 10:10:33;;;;;;;19.38;6.80;;;;;;;14.22;80.77;101090.09;4975096;28;20527;-49
2023/07/04 10:13:00;;;;;;;15.48;6.18;;;;;;;14.17;81.08;101090.78;4974891;28;20387;-47
2023/07/04 10:15:37;;;;;;;13.65;4.88;;;;;;;14.15;80.78;101090.16;4975318;28;20026;-50
2023/07/04 10:18:04;;;;;;;14.98;6.05;;;;;;;14.18;80.42;101096.97;4974764;28;20105;-47
2023/07/04 10:20:40;;;;;;;15.50;6.30;;;;;;;14.28;80.32;101094.59;4974720;28;20027;-49
2023/07/04 10:23:07;;;;;;;13.38;5.38;;;;;;;14.30;79.88;101086.28;4974734;28;20491;-49
2023/07/04 10:25:34;;;;;;;12.13;5.60;;;;;;;14.31;80.64;101086.03;4974667;28;20030;-46
2023/07/04 10:28:13;;;;;;;11.75;5.45;;;;;;;14.34;80.11;101091.00;4974819;28;20015;-46
2023/07/04 10:30:44;;;;;;;16.95;5.45;;;;;;;14.25;81.09;101084.25;4974455;28;20038;-48
2023/07/04 10:33:25;;;;;;;9.73;5.88;;;;;;;14.31;80.54;101091.44;4974469;28;20066;-45
2023/07/04 10:35:51;;;;;;;12.23;5.43;;;;;;;14.24;79.92;101085.31;4974406;28;20093;-45
2023/07/04 10:38:39;;;;;;;13.25;5.30;;;;;;;14.16;80.90;101089.13;4974314;28;20023;-46
2023/07/04 10:41:18;;;;;;;15.35;5.22;;;;;;;14.39;79.91;101082.25;4974793;28;20383;-49
2023/07/04 10:43:52;;;;;;;13.35;5.78;;;;;;;14.37;79.50;101084.31;4974634;28;20022;-48
2023/07/04 10:46:24;;;;;;;15.38;5.40;;;;;;;14.37;79.46;101078.94;4974196;28;20076;-48
2023/07/04 10:48:55;;;;;;;11.23;5.55;;;;;;;14.37;79.25;101079.75;4974501;28;20035;-49
2023/07/04 10:51:30;;;;;;;11.40;5.45;;;;;;;14.23;79.57;101081.78;4973501;28;20078;-49
2023/07/04 10:53:56;;;;;;;11.90;5.47;;;;;;;14.07;80.55;101074.31;4974245;28;20483;-45
2023/07/04 10:56:32;;;;;;;15.05;6.10;;;;;;;14.04;81.22;101079.31;4974158;28;20030;-48
2023/07/04 10:59:18;;;;;;;15.20;5.63;;;;;;;14.16;80.79;101083.75;4974190;28;20062;-49
2023/07/04 11:01:54;;;;;;;15.57;6.00;;;;;;;14.14;81.02;101082.31;4957773;28;20043;-49
2023/07/04 11:04:33;;;;;;;13.80;5.65;;;;;;;14.28;80.00;101086.50;4974125;28;20105;-49
2023/07/04 11:07:07;;;;;;;11.55;5.07;;;;;;;14.28;79.83;101083.81;4974143;28;20035;-50
2023/07/04 11:09:40;;;;;;;16.92;5.55;;;;;;;14.18;79.84;101078.94;4974063;28;20031;-49
2023/07/04 11:12:12;;;;;;;15.00;5.53;;;;;;;14.11;80.20;101080.06;4973716;28;20035;-47
2023/07/04 11:14:41;;;;;;;18.23;5.70;;;;;;;14.14;80.06;101082.31;4974079;28;20031;-50
2023/07/04 11:17:16;;;;;;;16.13;5.22;;;;;;;14.14;80.11;101071.53;4973886;28;20027;-50
2023/07/04 11:20:17;;;;;;;12.25;5.53;;;;;;;14.07;79.99;101078.88;4973952;28;20025;-49
2023/07/04 11:23:11;;;;;;;14.43;5.60;;;;;;;14.00;80.49;101079.75;4973893;28;20483;-46
2023/07/04 11:25:46;;;;;;;16.33;5.55;;;;;;;14.11;80.67;101075.50;4974100;28;20027;-49
2023/07/04 11:28:17;;;;;;;;;;;;;;;14.05;80.95;101080.94;4974204;28;20027;-48